createdAt,value
2022-12-23T00:00:27.858Z,92.99
2022-12-23T00:02:54.936Z,93.71
2022-12-23T00:05:21.560Z,93.17
2022-12-23T00:07:48.060Z,93.08
2022-12-23T00:10:14.509Z,93.33
2022-12-23T00:12:59.452Z,93.29
2022-12-23T00:15:25.841Z,93.16
2022-12-23T00:17:52.483Z,93.47
2022-12-23T00:20:18.992Z,93.33
2022-12-23T00:23:04.285Z,93.85
2022-12-23T00:25:40.376Z,93.35
2022-12-23T00:28:07.180Z,93.57
2022-12-23T00:30:33.551Z,93.34
2022-12-23T00:33:00.008Z,93.51
2022-12-23T00:35:29.147Z,93.57
2022-12-23T00:37:55.654Z,93.62
2022-12-23T00:40:40.822Z,93.62
2022-12-23T00:43:07.507Z,93.79
2022-12-23T00:45:33.925Z,94.22
2022-12-23T00:48:19.110Z,93.43
2022-12-23T00:50:45.796Z,93.78
2022-12-23T00:53:12.408Z,93.71
2022-12-23T00:55:38.795Z,93.48
2022-12-23T00:58:05.324Z,93.61
2022-12-23T01:00:50.438Z,94.03
2022-12-23T01:03:35.831Z,93.58
2022-12-23T01:06:03.192Z,93.76
2022-12-23T01:08:29.977Z,93.61
2022-12-23T01:10:56.638Z,93.34
2022-12-23T01:13:23.062Z,93.14
2022-12-23T01:15:49.668Z,93.55
2022-12-23T01:18:16.143Z,93.17
2022-12-23T01:20:42.544Z,93.36
2022-12-23T01:23:09.051Z,93.02
2022-12-23T01:25:35.441Z,93.08
2022-12-23T01:28:02.338Z,92.75
2022-12-23T01:30:28.684Z,92.88
2022-12-23T01:32:55.017Z,92.64
2022-12-23T01:35:21.601Z,92.88
2022-12-23T01:37:48.469Z,92.81
2022-12-23T01:40:14.961Z,93.05
2022-12-23T01:42:44.389Z,92.53
2022-12-23T01:45:21.214Z,92.26
2022-12-23T01:47:47.557Z,92.67
2022-12-23T01:50:21.808Z,92.63
2022-12-23T01:52:51.221Z,92.38
2022-12-23T01:55:20.803Z,92.64
2022-12-23T01:57:48.198Z,92.47
2022-12-23T02:00:53.577Z,92.22
2022-12-23T02:03:38.548Z,92.05
2022-12-23T02:06:23.932Z,92.05
2022-12-23T02:09:08.673Z,92.41
2022-12-23T02:11:53.788Z,92.06
2022-12-23T02:14:41.761Z,92.05
2022-12-23T02:17:26.792Z,92.08
2022-12-23T02:19:56.166Z,92.37
2022-12-23T02:22:22.476Z,92.26
2022-12-23T02:24:59.037Z,92.46
2022-12-23T02:27:48.419Z,92.30
2022-12-23T02:30:53.268Z,92.30
2022-12-23T02:33:30.377Z,92.13
2022-12-23T02:35:56.687Z,91.93
2022-12-23T02:38:25.903Z,92.30
2022-12-23T02:41:11.132Z,92.24
2022-12-23T02:43:40.593Z,91.89
2022-12-23T02:46:09.715Z,91.92
2022-12-23T02:49:01.191Z,92.11
2022-12-23T02:51:31.614Z,92.04
2022-12-23T02:54:04.004Z,92.14
2022-12-23T02:56:32.214Z,92.10
2022-12-23T02:59:02.241Z,92.35
2022-12-23T03:01:31.070Z,92.44
2022-12-23T03:03:57.605Z,92.27
2022-12-23T03:06:32.876Z,92.58
2022-12-23T03:08:59.728Z,92.61
2022-12-23T03:11:49.085Z,92.68
2022-12-23T03:14:15.415Z,92.93
2022-12-23T03:16:51.472Z,92.84
2022-12-23T03:19:26.252Z,92.80
2022-12-23T03:21:58.195Z,92.64
2022-12-23T03:24:32.684Z,92.87
2022-12-23T03:27:07.312Z,92.88
2022-12-23T03:29:41.078Z,93.02
2022-12-23T03:32:09.102Z,92.93
2022-12-23T03:34:37.435Z,92.95
2022-12-23T03:37:06.278Z,92.70
2022-12-23T03:39:35.704Z,92.89
2022-12-23T03:42:05.810Z,92.88
2022-12-23T03:44:35.310Z,93.17
2022-12-23T03:47:05.826Z,92.86
2022-12-23T03:49:34.988Z,92.99
2022-12-23T03:52:07.493Z,92.94
2022-12-23T03:54:38.102Z,93.30
2022-12-23T03:57:06.050Z,93.24
2022-12-23T03:59:35.542Z,92.95
2022-12-23T04:02:20.827Z,93.38
2022-12-23T04:04:59.447Z,93.29
2022-12-23T04:07:30.378Z,93.51
2022-12-23T04:09:57.431Z,93.15
2022-12-23T04:12:24.676Z,93.06
2022-12-23T04:14:51.609Z,93.40
2022-12-23T04:17:18.717Z,92.96
2022-12-23T04:19:45.877Z,92.51
2022-12-23T04:22:12.667Z,92.21
2022-12-23T04:24:39.297Z,92.04
2022-12-23T04:27:06.453Z,92.05
2022-12-23T04:29:33.153Z,91.72
2022-12-23T04:31:59.630Z,91.86
2022-12-23T04:34:26.069Z,91.55
2022-12-23T04:36:52.460Z,91.37
2022-12-23T04:39:18.812Z,91.35
2022-12-23T04:41:45.380Z,91.28
2022-12-23T04:44:11.739Z,91.30
2022-12-23T04:46:38.141Z,91.14
2022-12-23T04:49:04.531Z,91.08
2022-12-23T04:51:30.896Z,91.19
2022-12-23T04:53:57.265Z,90.92
2022-12-23T04:56:23.632Z,90.86
2022-12-23T04:58:49.944Z,91.14
2022-12-23T05:01:16.360Z,91.08
2022-12-23T05:03:42.836Z,90.94
2022-12-23T05:06:09.592Z,91.03
2022-12-23T05:08:35.900Z,90.78
2022-12-23T05:11:02.288Z,90.78
2022-12-23T05:13:28.681Z,91.06
2022-12-23T05:15:55.440Z,91.14
2022-12-23T05:18:22.459Z,91.04
2022-12-23T05:20:49.107Z,91.05
2022-12-23T05:23:15.675Z,90.99
2022-12-23T05:25:42.052Z,90.92
2022-12-23T05:28:09.479Z,90.86
2022-12-23T05:30:35.862Z,91.24
2022-12-23T05:33:02.287Z,90.71
2022-12-23T05:35:28.694Z,90.63
2022-12-23T05:37:55.031Z,90.63
2022-12-23T05:40:24.135Z,90.69
2022-12-23T05:42:55.049Z,90.60
2022-12-23T05:45:22.009Z,90.42
2022-12-23T05:47:48.355Z,90.60
2022-12-23T05:50:14.709Z,90.68
2022-12-23T05:52:41.275Z,90.79
2022-12-23T05:55:08.087Z,90.69
2022-12-23T05:57:34.516Z,90.73
2022-12-23T06:00:01.027Z,90.60
2022-12-23T06:02:27.506Z,90.70
2022-12-23T06:04:54.022Z,90.71
2022-12-23T06:07:20.436Z,90.45
2022-12-23T06:09:46.761Z,90.28
2022-12-23T06:12:13.121Z,90.48
2022-12-23T06:14:39.499Z,90.27
2022-12-23T06:17:05.949Z,89.99
2022-12-23T06:19:32.293Z,90.20
2022-12-23T06:21:58.585Z,90.12
2022-12-23T06:24:25.164Z,90.02
2022-12-23T06:26:56.854Z,90.14
2022-12-23T06:29:24.302Z,90.23
2022-12-23T06:31:50.817Z,90.05
2022-12-23T06:34:17.400Z,89.99
2022-12-23T06:36:43.734Z,90.25
2022-12-23T06:39:10.341Z,90.15
2022-12-23T06:41:36.914Z,90.28
2022-12-23T06:44:03.559Z,90.21
2022-12-23T06:46:30.036Z,90.13
2022-12-23T06:48:56.541Z,90.13
2022-12-23T06:51:22.969Z,90.11
2022-12-23T06:53:49.279Z,90.17
2022-12-23T06:56:15.605Z,90.07
2022-12-23T06:58:42.237Z,89.95
2022-12-23T07:01:10.247Z,90.06
2022-12-23T07:03:36.981Z,89.90
2022-12-23T07:06:03.653Z,90.00
2022-12-23T07:08:30.073Z,90.09
2022-12-23T07:10:59.706Z,90.00
2022-12-23T07:13:26.542Z,89.89
2022-12-23T07:15:52.972Z,89.91
2022-12-23T07:18:19.327Z,90.02
2022-12-23T07:20:45.675Z,90.06
2022-12-23T07:23:12.067Z,89.98
2022-12-23T07:25:38.375Z,90.09
2022-12-23T07:28:05.110Z,90.22
2022-12-23T07:30:31.441Z,90.10
2022-12-23T07:32:57.773Z,90.36
2022-12-23T07:35:24.269Z,90.35
2022-12-23T07:37:51.329Z,90.24
2022-12-23T07:40:17.718Z,90.17
2022-12-23T07:42:46.285Z,90.01
2022-12-23T07:45:16.705Z,90.23
2022-12-23T07:47:43.217Z,90.10
2022-12-23T07:50:09.983Z,89.89
2022-12-23T07:52:36.571Z,90.07
2022-12-23T07:55:02.917Z,90.15
2022-12-23T07:57:29.555Z,90.13
2022-12-23T07:59:55.874Z,90.10
2022-12-23T08:02:25.086Z,90.17
2022-12-23T08:04:52.026Z,90.27
2022-12-23T08:07:18.455Z,90.05
2022-12-23T08:09:44.853Z,90.04
2022-12-23T08:12:11.192Z,89.93
2022-12-23T08:14:37.563Z,90.03
2022-12-23T08:17:03.931Z,90.20
2022-12-23T08:19:30.254Z,90.04
2022-12-23T08:21:56.607Z,89.92
2022-12-23T08:24:22.966Z,90.27
2022-12-23T08:26:49.527Z,89.80
2022-12-23T08:29:16.221Z,90.13
2022-12-23T08:31:42.775Z,90.25
2022-12-23T08:34:09.174Z,90.37
2022-12-23T08:36:35.956Z,90.22
2022-12-23T08:39:05.085Z,90.28
2022-12-23T08:41:33.106Z,90.43
2022-12-23T08:43:59.760Z,90.40
2022-12-23T08:46:26.313Z,90.53
2022-12-23T08:48:53.196Z,90.40
2022-12-23T08:51:20.291Z,90.52
2022-12-23T08:53:46.817Z,90.50
2022-12-23T08:56:14.578Z,90.60
2022-12-23T08:58:42.474Z,90.55
2022-12-23T09:01:10.055Z,90.48
2022-12-23T09:03:37.220Z,90.68
2022-12-23T09:06:07.288Z,90.19
2022-12-23T09:08:34.314Z,90.79
2022-12-23T09:11:01.340Z,91.14
2022-12-23T09:13:34.887Z,90.82
2022-12-23T09:16:02.293Z,90.76
2022-12-23T09:18:28.744Z,90.99
2022-12-23T09:21:02.179Z,90.98
2022-12-23T09:23:28.753Z,90.81
2022-12-23T09:25:55.559Z,91.10
2022-12-23T09:28:22.446Z,91.77
2022-12-23T09:30:48.880Z,91.85
2022-12-23T09:33:17.561Z,92.57
2022-12-23T09:35:44.385Z,93.17
2022-12-23T09:38:10.847Z,92.75
2022-12-23T09:40:38.738Z,92.42
2022-12-23T09:43:12.620Z,92.17
2022-12-23T09:45:49.638Z,92.29
2022-12-23T09:48:18.707Z,92.26
2022-12-23T09:50:46.626Z,91.93
2022-12-23T09:53:15.156Z,92.98
2022-12-23T09:55:48.956Z,92.84
2022-12-23T09:58:22.757Z,92.33
2022-12-23T10:01:09.363Z,91.52
2022-12-23T10:03:41.760Z,91.88
2022-12-23T10:06:15.825Z,91.36
2022-12-23T10:08:47.161Z,91.67
2022-12-23T10:11:28.052Z,91.46
2022-12-23T10:14:03.140Z,91.54
2022-12-23T10:16:35.318Z,91.83
2022-12-23T10:19:04.136Z,91.59
2022-12-23T10:21:36.647Z,90.99
2022-12-23T10:24:06.985Z,91.68
2022-12-23T10:26:43.049Z,91.88
2022-12-23T10:29:19.006Z,92.80
2022-12-23T10:32:09.165Z,92.71
2022-12-23T10:34:54.450Z,92.32
2022-12-23T10:37:23.676Z,92.74
2022-12-23T10:40:03.222Z,92.45
2022-12-23T10:42:36.342Z,92.51
2022-12-23T10:45:22.210Z,92.20
2022-12-23T10:48:14.437Z,91.91
2022-12-23T10:50:46.098Z,92.24
2022-12-23T10:53:15.686Z,91.96
2022-12-23T10:55:42.441Z,91.80
2022-12-23T10:58:12.923Z,92.28
2022-12-23T11:00:41.213Z,92.33
2022-12-23T11:03:19.910Z,91.96
2022-12-23T11:05:49.422Z,91.81
2022-12-23T11:08:15.809Z,92.62
2022-12-23T11:10:42.394Z,92.62
2022-12-23T11:13:08.739Z,93.04
2022-12-23T11:15:39.907Z,93.02
2022-12-23T11:18:06.337Z,93.45
2022-12-23T11:20:33.546Z,93.43
2022-12-23T11:23:04.164Z,93.25
2022-12-23T11:25:30.451Z,93.53
2022-12-23T11:28:21.999Z,93.52
2022-12-23T11:30:59.986Z,93.61
2022-12-23T11:33:28.349Z,93.18
2022-12-23T11:36:07.346Z,93.13
2022-12-23T11:38:35.250Z,93.81
2022-12-23T11:41:02.811Z,93.71
2022-12-23T11:43:30.711Z,93.53
2022-12-23T11:46:17.170Z,93.87
2022-12-23T11:48:43.636Z,94.03
2022-12-23T11:51:10.007Z,93.63
2022-12-23T11:53:36.665Z,93.32
2022-12-23T11:56:06.612Z,93.08
2022-12-23T11:58:59.220Z,94.10
2022-12-23T12:01:25.873Z,94.58
2022-12-23T12:04:15.218Z,93.81
2022-12-23T12:06:43.582Z,93.82
2022-12-23T12:09:12.163Z,94.17
2022-12-23T12:11:39.842Z,93.61
2022-12-23T12:14:08.523Z,93.76
2022-12-23T12:16:37.920Z,94.09
2022-12-23T12:19:10.311Z,94.20
2022-12-23T12:21:38.291Z,93.89
2022-12-23T12:24:18.684Z,93.83
2022-12-23T12:26:50.834Z,93.96
2022-12-23T12:29:21.044Z,94.67
2022-12-23T12:31:48.925Z,94.20
2022-12-23T12:34:18.377Z,94.49
2022-12-23T12:36:44.782Z,93.86
2022-12-23T12:39:18.082Z,94.18
2022-12-23T12:42:01.825Z,94.24
2022-12-23T12:44:39.490Z,94.16
2022-12-23T12:47:36.120Z,94.35
2022-12-23T12:49:59.125Z,94.12
2022-12-23T12:52:27.050Z,94.33
2022-12-23T12:54:59.100Z,94.61
2022-12-23T12:57:26.643Z,94.13
2022-12-23T12:59:58.563Z,94.18
2022-12-23T13:02:28.150Z,93.97
2022-12-23T13:05:13.569Z,94.20
2022-12-23T13:08:04.024Z,94.32
2022-12-23T13:10:49.661Z,95.07
2022-12-23T13:13:28.944Z,94.80
2022-12-23T13:16:01.528Z,94.79
2022-12-23T13:18:38.770Z,94.69
2022-12-23T13:21:14.499Z,94.78
2022-12-23T13:24:03.830Z,94.70
2022-12-23T13:26:31.302Z,94.75
2022-12-23T13:29:17.515Z,94.81
2022-12-23T13:31:58.037Z,95.26
2022-12-23T13:34:35.751Z,94.89
2022-12-23T13:37:20.711Z,94.14
2022-12-23T13:39:47.280Z,94.70
2022-12-23T13:42:25.000Z,94.42
2022-12-23T13:44:51.838Z,94.09
2022-12-23T13:47:24.261Z,94.14
2022-12-23T13:50:05.922Z,94.52
2022-12-23T13:52:32.254Z,94.60
2022-12-23T13:55:06.622Z,94.91
2022-12-23T13:57:36.004Z,94.55
2022-12-23T14:00:18.600Z,94.54
2022-12-23T14:03:14.309Z,94.64
2022-12-23T14:05:50.750Z,94.46
2022-12-23T14:08:20.433Z,94.54
2022-12-23T14:10:59.517Z,94.60
2022-12-23T14:13:28.898Z,94.54
2022-12-23T14:15:58.319Z,93.58
2022-12-23T14:18:30.594Z,93.89
2022-12-23T14:21:08.242Z,94.51
2022-12-23T14:23:40.506Z,95.08
2022-12-23T14:26:06.859Z,94.86
2022-12-23T14:28:45.408Z,94.97
2022-12-23T14:31:33.926Z,95.24
2022-12-23T14:34:05.434Z,95.66
2022-12-23T14:36:32.077Z,95.12
2022-12-23T14:39:13.779Z,95.39
2022-12-23T14:41:53.407Z,94.89
2022-12-23T14:44:21.184Z,95.06
2022-12-23T14:46:47.590Z,95.71
2022-12-23T14:49:39.465Z,95.34
2022-12-23T14:52:25.245Z,95.20
2022-12-23T14:55:21.037Z,95.12
2022-12-23T14:57:40.421Z,94.46
2022-12-23T15:00:07.064Z,94.86
2022-12-23T15:02:36.309Z,94.62
2022-12-23T15:05:03.549Z,94.86
2022-12-23T15:07:34.553Z,95.13
2022-12-23T15:10:21.365Z,95.18
2022-12-23T15:12:49.141Z,94.91
2022-12-23T15:15:20.013Z,95.15
2022-12-23T15:17:48.999Z,94.52
2022-12-23T15:20:26.308Z,94.94
2022-12-23T15:22:52.742Z,95.42
2022-12-23T15:25:26.916Z,95.15
2022-12-23T15:28:01.200Z,94.91
2022-12-23T15:30:29.819Z,95.11
2022-12-23T15:32:58.249Z,95.34
2022-12-23T15:35:26.390Z,95.26
2022-12-23T15:37:52.956Z,94.82
2022-12-23T15:40:26.999Z,94.97
2022-12-23T15:42:53.491Z,95.53
2022-12-23T15:45:22.700Z,95.87
2022-12-23T15:47:49.662Z,96.18
2022-12-23T15:50:17.321Z,96.07
2022-12-23T15:52:45.147Z,95.77
2022-12-23T15:55:23.076Z,95.98
2022-12-23T15:57:50.956Z,95.87
2022-12-23T16:00:22.376Z,95.71
2022-12-23T16:03:00.383Z,95.25
2022-12-23T16:05:30.581Z,95.17
2022-12-23T16:08:11.853Z,94.72
2022-12-23T16:10:38.932Z,94.67
2022-12-23T16:13:15.150Z,95.17
2022-12-23T16:15:41.512Z,94.95
2022-12-23T16:18:19.689Z,94.82
2022-12-23T16:20:49.307Z,94.88
2022-12-23T16:23:16.532Z,94.73
2022-12-23T16:25:50.491Z,94.71
2022-12-23T16:28:27.980Z,94.70
2022-12-23T16:30:57.578Z,94.59
2022-12-23T16:33:27.320Z,94.63
2022-12-23T16:35:54.046Z,94.31
2022-12-23T16:38:24.687Z,94.88
2022-12-23T16:40:52.202Z,94.94
2022-12-23T16:43:19.898Z,95.22
2022-12-23T16:45:49.609Z,94.89
2022-12-23T16:48:28.000Z,94.22
2022-12-23T16:50:54.917Z,94.46
2022-12-23T16:53:21.831Z,94.24
2022-12-23T16:55:55.267Z,94.12
2022-12-23T16:58:29.729Z,94.47
2022-12-23T17:00:56.467Z,94.26
2022-12-23T17:03:22.880Z,93.74
2022-12-23T17:05:49.210Z,93.53
2022-12-23T17:08:15.826Z,93.30
2022-12-23T17:10:44.407Z,93.45
2022-12-23T17:13:15.693Z,93.33
2022-12-23T17:15:42.043Z,93.05
2022-12-23T17:18:12.463Z,92.99
2022-12-23T17:20:39.219Z,92.85
2022-12-23T17:23:05.981Z,92.77
2022-12-23T17:25:32.356Z,92.73
2022-12-23T17:27:58.664Z,92.60
2022-12-23T17:30:25.439Z,92.23
2022-12-23T17:32:54.108Z,92.23
2022-12-23T17:35:21.515Z,92.96
2022-12-23T17:37:47.931Z,92.59
2022-12-23T17:40:15.177Z,93.11
2022-12-23T17:42:42.133Z,93.48
2022-12-23T17:45:20.966Z,93.20
2022-12-23T17:47:47.360Z,92.85
2022-12-23T17:50:13.776Z,93.14
2022-12-23T17:52:40.131Z,92.83
2022-12-23T17:55:06.675Z,92.63
2022-12-23T17:57:33.124Z,92.45
2022-12-23T17:59:59.492Z,92.32
2022-12-23T18:02:35.057Z,92.60
2022-12-23T18:05:02.718Z,92.76
2022-12-23T18:07:29.063Z,93.30
2022-12-23T18:09:55.487Z,93.86
2022-12-23T18:12:34.315Z,93.78
2022-12-23T18:15:01.192Z,93.59
2022-12-23T18:17:27.601Z,93.87
2022-12-23T18:19:54.731Z,93.94
2022-12-23T18:22:22.531Z,93.57
2022-12-23T18:24:53.830Z,93.38
2022-12-23T18:27:23.923Z,93.55
2022-12-23T18:29:50.514Z,93.47
2022-12-23T18:32:21.677Z,93.74
2022-12-23T18:34:49.317Z,93.97
2022-12-23T18:37:16.094Z,93.40
2022-12-23T18:39:42.664Z,94.25
2022-12-23T18:42:11.319Z,94.21
2022-12-23T18:44:37.627Z,94.56
2022-12-23T18:47:04.413Z,93.93
2022-12-23T18:49:31.866Z,94.24
2022-12-23T18:51:58.209Z,94.02
2022-12-23T18:54:24.660Z,94.20
2022-12-23T18:56:51.061Z,94.38
2022-12-23T18:59:22.760Z,93.95
2022-12-23T19:01:56.120Z,94.32
2022-12-23T19:04:22.557Z,94.55
2022-12-23T19:06:48.924Z,95.02
2022-12-23T19:09:24.557Z,94.56
2022-12-23T19:11:51.636Z,94.28
2022-12-23T19:14:18.013Z,95.09
2022-12-23T19:16:50.824Z,95.56
2022-12-23T19:19:18.483Z,94.97
2022-12-23T19:21:44.899Z,94.56
2022-12-23T19:24:11.241Z,93.72
2022-12-23T19:26:37.596Z,93.20
2022-12-23T19:29:03.969Z,94.22
2022-12-23T19:31:30.477Z,94.18
2022-12-23T19:33:56.875Z,95.49
2022-12-23T19:36:23.464Z,96.41
2022-12-23T19:38:50.171Z,96.14
2022-12-23T19:41:16.910Z,96.51
2022-12-23T19:43:44.113Z,95.75
2022-12-23T19:46:11.201Z,94.68
2022-12-23T19:48:37.948Z,94.38
2022-12-23T19:51:06.523Z,94.76
2022-12-23T19:53:33.634Z,94.29
2022-12-23T19:56:02.157Z,94.11
2022-12-23T19:58:28.816Z,93.93
2022-12-23T20:01:04.712Z,93.69
2022-12-23T20:03:31.105Z,93.40
2022-12-23T20:05:57.466Z,93.47
2022-12-23T20:08:23.828Z,93.99
2022-12-23T20:10:50.217Z,93.51
2022-12-23T20:13:16.558Z,93.62
2022-12-23T20:15:42.970Z,94.41
2022-12-23T20:18:09.426Z,92.93
2022-12-23T20:20:36.762Z,93.55
2022-12-23T20:23:03.133Z,93.18
2022-12-23T20:25:29.544Z,92.69
2022-12-23T20:27:55.911Z,93.29
2022-12-23T20:30:22.333Z,93.16
2022-12-23T20:32:48.659Z,93.08
2022-12-23T20:35:15.035Z,92.74
2022-12-23T20:37:41.401Z,92.84
2022-12-23T20:40:11.114Z,93.20
2022-12-23T20:42:37.443Z,92.92
2022-12-23T20:45:04.241Z,93.05
2022-12-23T20:47:30.622Z,92.83
2022-12-23T20:49:57.499Z,92.52
2022-12-23T20:52:25.492Z,92.82
2022-12-23T20:54:51.812Z,92.90
2022-12-23T20:57:18.219Z,92.42
2022-12-23T20:59:45.763Z,92.59
2022-12-23T21:02:13.175Z,92.56
2022-12-23T21:04:39.677Z,92.82
2022-12-23T21:07:06.514Z,92.54
2022-12-23T21:09:33.164Z,92.62
2022-12-23T21:11:59.745Z,92.58
2022-12-23T21:14:26.097Z,92.41
2022-12-23T21:16:52.779Z,92.83
2022-12-23T21:19:20.445Z,92.75
2022-12-23T21:21:47.848Z,92.48
2022-12-23T21:24:14.403Z,92.31
2022-12-23T21:26:41.062Z,92.33
2022-12-23T21:29:08.914Z,92.62
2022-12-23T21:31:36.615Z,93.23
2022-12-23T21:34:03.065Z,92.84
2022-12-23T21:36:31.268Z,93.77
2022-12-23T21:38:58.157Z,93.51
2022-12-23T21:41:25.831Z,93.84
2022-12-23T21:43:52.170Z,94.58
2022-12-23T21:46:20.127Z,95.12
2022-12-23T21:48:47.226Z,95.01
2022-12-23T21:51:20.163Z,95.04
2022-12-23T21:53:47.371Z,95.90
2022-12-23T21:56:15.249Z,95.99
2022-12-23T21:58:41.902Z,96.07
2022-12-23T22:01:13.073Z,96.07
2022-12-23T22:03:39.518Z,96.16
2022-12-23T22:06:10.473Z,96.58
2022-12-23T22:08:37.236Z,95.99
2022-12-23T22:11:14.403Z,96.18
2022-12-23T22:13:40.997Z,96.31
2022-12-23T22:16:11.952Z,96.60
2022-12-23T22:18:39.042Z,96.03
2022-12-23T22:21:06.156Z,96.21
2022-12-23T22:23:32.652Z,96.12
2022-12-23T22:25:59.108Z,96.09
2022-12-23T22:28:25.591Z,96.22
2022-12-23T22:30:52.292Z,95.57
2022-12-23T22:33:18.753Z,95.68
2022-12-23T22:35:53.603Z,95.60
2022-12-23T22:38:20.088Z,96.13
2022-12-23T22:40:50.027Z,96.04
2022-12-23T22:43:16.450Z,95.66
2022-12-23T22:45:42.948Z,95.75
2022-12-23T22:48:09.443Z,96.27
2022-12-23T22:50:36.047Z,96.13
2022-12-23T22:53:02.720Z,95.80
2022-12-23T22:55:29.058Z,95.74
2022-12-23T22:57:55.885Z,95.53
2022-12-23T23:00:22.340Z,95.21
2022-12-23T23:02:49.067Z,95.31
2022-12-23T23:05:15.604Z,94.89
2022-12-23T23:07:42.103Z,94.66
2022-12-23T23:10:08.936Z,94.29
2022-12-23T23:12:35.316Z,94.02
2022-12-23T23:15:01.940Z,94.01
2022-12-23T23:17:28.903Z,94.21
2022-12-23T23:19:55.459Z,94.01
2022-12-23T23:22:23.088Z,93.98
2022-12-23T23:24:50.020Z,93.95
2022-12-23T23:27:16.454Z,94.18
2022-12-23T23:29:42.976Z,93.89
2022-12-23T23:32:09.804Z,93.92
2022-12-23T23:34:36.996Z,94.47
2022-12-23T23:37:03.860Z,94.31
2022-12-23T23:39:30.260Z,94.87
2022-12-23T23:41:56.695Z,94.85
2022-12-23T23:44:23.125Z,94.97
2022-12-23T23:46:49.467Z,94.93
2022-12-23T23:49:15.875Z,94.72
2022-12-23T23:51:42.313Z,94.74
2022-12-23T23:54:08.724Z,94.40
2022-12-23T23:56:38.748Z,94.75
2022-12-23T23:59:06.077Z,94.17
